Time,TemperatureF,DewpointF,PressureIn,WindDirection,WindDirectionDegrees,WindSpeedMPH,WindSpeedGustMPH,Humidity,HourlyPrecipIn,Conditions,Clouds,dailyrainin,SoftwareType,DateUTC
2013-11-14 00:01:00,70.6,59.5,30.17,ENE,70,5.0,6.9,68,0.00,RA,,0.00,WeatherDisplay:10.37,2013-11-14 05:01:00,
2013-11-14 00:06:00,70.5,59.4,30.16,NE,34,7.8,13.8,68,0.00,RA,,0.00,WeatherDisplay:10.37,2013-11-14 05:06:00,
2013-11-14 00:11:00,70.5,59.4,30.16,NNE,26,10.6,15.0,68,0.00,CLR,,0.00,WeatherDisplay:10.37,2013-11-14 05:11:00,
2013-11-14 00:17:00,70.5,59.4,30.16,NNE,28,7.1,12.7,68,0.00,CLR,,0.00,WeatherDisplay:10.37,2013-11-14 05:17:00,
2013-11-14 00:22:00,70.5,59.4,30.16,NE,55,7.0,11.5,68,0.00,CLR,,0.00,WeatherDisplay:10.37,2013-11-14 05:22:00,
2013-11-14 00:27:00,70.5,59.8,30.16,NE,46,5.2,8.1,69,0.00,CLR,,0.00,WeatherDisplay:10.37,2013-11-14 05:27:00,
2013-11-14 00:32:00,70.5,60.2,30.16,NNE,28,7.5,10.4,70,0.00,CLR,,0.00,WeatherDisplay:10.37,2013-11-14 05:32:00,
2013-11-14 00:37:00,70.6,60.3,30.16,NE,41,7.7,12.7,70,0.00,CLR,,0.00,WeatherDisplay:10.37,2013-11-14 05:37:00,
2013-11-14 00:42:00,70.6,60.7,30.16,NNE,33,10.4,19.6,71,0.00,CLR,,0.00,WeatherDisplay:10.37,2013-11-14 05:42:00,
2013-11-14 00:47:00,70.6,60.7,30.17,NNE,15,8.8,16.1,71,0.00,CLR,,0.00,WeatherDisplay:10.37,2013-11-14 05:47:00,
2013-11-14 00:52:00,70.6,60.7,30.16,NE,56,5.3,11.5,71,0.00,CLR,,0.00,WeatherDisplay:10.37,2013-11-14 05:52:00,
2013-11-14 00:57:00,70.4,60.5,30.16,NNE,25,8.2,9.2,71,0.00,CLR,,0.00,WeatherDisplay:10.37,2013-11-14 05:57:00,
2013-11-14 01:02:00,70.3,60.4,30.16,NE,42,8.2,11.5,71,0.00,CLR,,0.00,WeatherDisplay:10.37,2013-11-14 06:02:00,
2013-11-14 01:07:00,70.2,60.4,30.16,NNE,26,3.0,8.1,71,0.00,CLR,,0.00,WeatherDisplay:10.37,2013-11-14 06:07:00,
2013-11-14 01:12:00,70.2,60.0,30.16,East,82,5.7,12.7,70,0.00,CLR,,0.00,WeatherDisplay:10.37,2013-11-14 06:12:00,
2013-11-14 01:17:00,70.1,59.9,30.16,ENE,57,6.1,6.9,70,0.00,CLR,,0.00,WeatherDisplay:10.37,2013-11-14 06:17:00,
2013-11-14 01:22:00,70.1,59.9,30.16,NNE,30,7.5,10.4,70,0.00,CLR,,0.00,WeatherDisplay:10.37,2013-11-14 06:22:00,
2013-11-14 01:27:00,70.1,59.5,30.16,NNE,31,6.3,10.4,69,0.00,CLR,,0.00,WeatherDisplay:10.37,2013-11-14 06:27:00,
2013-11-14 01:32:00,70.0,59.4,30.16,NNE,18,6.4,12.7,69,0.00,CLR,,0.00,WeatherDisplay:10.37,2013-11-14 06:32:00,
2013-11-14 01:37:00,69.9,59.3,30.16,NNE,26,6.1,9.2,69,0.00,CLR,,0.00,WeatherDisplay:10.37,2013-11-14 06:37:00,
2013-11-14 01:42:00,70.0,59.4,30.16,ENE,59,5.5,8.1,69,0.00,CLR,,0.00,WeatherDisplay:10.37,2013-11-14 06:42:00,
2013-11-14 01:47:00,70.0,59.0,30.16,NNE,24,6.3,11.0,68,0.00,CLR,,0.00,WeatherDisplay:10.37,2013-11-14 06:47:00,
2013-11-14 01:52:00,70.0,59.0,30.15,NE,38,5.1,6.9,68,0.00,CLR,,0.00,WeatherDisplay:10.37,2013-11-14 06:52:00,
2013-11-14 01:57:00,69.9,58.4,30.16,NE,52,10.6,16.1,67,0.00,CLR,,0.00,WeatherDisplay:10.37,2013-11-14 06:57:00,
2013-11-14 02:02:00,70.1,58.6,30.15,NE,45,9.2,13.8,67,0.00,CLR,,0.00,WeatherDisplay:10.37,2013-11-14 07:02:00,
2013-11-14 02:07:00,70.0,58.5,30.15,NE,46,7.1,11.5,67,0.00,CLR,,0.00,WeatherDisplay:10.37,2013-11-14 07:07:00,
2013-11-14 02:12:00,69.9,58.4,30.15,East,100,9.5,13.8,67,0.00,CLR,,0.00,WeatherDisplay:10.37,2013-11-14 07:12:00,
2013-11-14 02:17:00,70.0,58.5,30.15,East,88,7.5,12.7,67,0.00,CLR,,0.00,WeatherDisplay:10.37,2013-11-14 07:17:00,
2013-11-14 02:22:00,70.0,58.5,30.15,NE,51,7.5,9.2,67,0.00,CLR,,0.00,WeatherDisplay:10.37,2013-11-14 07:22:00,
2013-11-14 02:27:00,69.9,58.4,30.15,North,9,6.3,9.2,67,0.00,CLR,,0.00,WeatherDisplay:10.37,2013-11-14 07:27:00,
2013-11-14 02:32:00,69.9,57.6,30.15,NE,39,7.2,12.7,65,0.00,CLR,,0.00,WeatherDisplay:10.37,2013-11-14 07:32:00,
2013-11-14 02:37:00,69.8,57.9,30.14,NNE,33,7.3,10.4,66,0.00,CLR,,0.00,WeatherDisplay:10.37,2013-11-14 07:37:00,
2013-11-14 02:42:00,69.8,57.9,30.14,NNE,27,6.1,11.5,66,0.00,CLR,,0.00,WeatherDisplay:10.37,2013-11-14 07:42:00,
2013-11-14 02:47:00,69.7,57.4,30.14,NE,36,8.3,11.5,65,0.00,CLR,,0.00,WeatherDisplay:10.37,2013-11-14 07:47:00,
2013-11-14 02:52:00,69.7,57.8,30.14,NE,40,5.4,11.5,66,0.00,CLR,,0.00,WeatherDisplay:10.37,2013-11-14 07:52:00,
2013-11-14 02:57:00,69.7,57.8,30.14,NE,34,4.9,8.1,66,0.00,CLR,,0.00,WeatherDisplay:10.37,2013-11-14 07:57:00,
2013-11-14 03:02:00,69.7,57.8,30.14,NNE,32,7.2,11.5,66,0.00,CLR,,0.00,WeatherDisplay:10.37,2013-11-14 08:02:00,
2013-11-14 03:07:00,69.7,58.3,30.14,NNE,26,4.2,4.6,67,0.00,CLR,,0.00,WeatherDisplay:10.37,2013-11-14 08:07:00,
2013-11-14 03:12:00,69.7,58.3,30.14,NE,47,5.5,10.4,67,0.00,CLR,,0.00,WeatherDisplay:10.37,2013-11-14 08:12:00,
2013-11-14 03:17:00,69.7,58.7,30.14,NNE,31,5.7,8.1,68,0.00,CLR,,0.00,WeatherDisplay:10.37,2013-11-14 08:17:00,
2013-11-14 03:22:00,69.6,58.6,30.14,ENE,61,7.4,9.2,68,0.00,CLR,,0.00,WeatherDisplay:10.37,2013-11-14 08:22:00,
2013-11-14 03:27:00,69.6,58.6,30.14,NE,49,6.8,8.1,68,0.00,CLR,,0.00,WeatherDisplay:10.37,2013-11-14 08:27:00,
2013-11-14 03:32:00,69.6,59.0,30.14,NE,50,5.7,10.4,69,0.00,CLR,,0.00,WeatherDisplay:10.37,2013-11-14 08:32:00,
2013-11-14 03:37:00,69.6,59.4,30.14,ENE,67,5.7,9.2,70,0.00,CLR,,0.00,WeatherDisplay:10.37,2013-11-14 08:37:00,
2013-11-14 03:42:00,69.6,59.4,30.14,NE,38,4.7,6.9,70,0.00,CLR,,0.00,WeatherDisplay:10.37,2013-11-14 08:42:00,
2013-11-14 03:47:00,69.7,59.9,30.14,ENE,59,6.7,9.2,71,0.00,CLR,,0.00,WeatherDisplay:10.37,2013-11-14 08:47:00,
2013-11-14 03:52:00,69.8,60.4,30.14,NNE,22,4.5,6.0,72,0.00,CLR,,0.00,WeatherDisplay:10.37,2013-11-14 08:52:00,
2013-11-14 03:57:00,69.9,60.1,30.14,ENE,68,4.2,6.9,71,0.00,CLR,,0.00,WeatherDisplay:10.37,2013-11-14 08:57:00,
2013-11-14 04:02:00,70.2,60.7,30.14,NNE,15,6.1,6.9,72,0.00,CLR,,0.00,WeatherDisplay:10.37,2013-11-14 09:02:00,
2013-11-14 04:07:00,70.4,60.5,30.14,NNE,32,4.8,9.2,71,0.00,CLR,,0.00,WeatherDisplay:10.37,2013-11-14 09:07:00,
2013-11-14 04:12:00,70.6,60.7,30.14,NE,40,7.0,10.4,71,0.00,CLR,,0.00,WeatherDisplay:10.37,2013-11-14 09:12:00,
2013-11-14 04:17:00,70.6,60.7,30.14,NE,52,7.2,13.8,71,0.00,CLR,,0.00,WeatherDisplay:10.37,2013-11-14 09:17:00,
2013-11-14 04:22:00,70.7,60.8,30.14,ENE,58,6.0,10.4,71,0.00,CLR,,0.00,WeatherDisplay:10.37,2013-11-14 09:22:00,
2013-11-14 04:27:00,70.6,60.7,30.14,NNW,344,5.5,8.1,71,0.00,CLR,,0.00,WeatherDisplay:10.37,2013-11-14 09:27:00,
2013-11-14 04:32:00,70.6,60.7,30.14,NNE,12,8.0,12.7,71,0.00,CLR,,0.00,WeatherDisplay:10.37,2013-11-14 09:32:00,
2013-11-14 04:37:00,70.6,60.7,30.14,ENE,61,4.6,9.0,71,0.00,CLR,,0.00,WeatherDisplay:10.37,2013-11-14 09:37:00,
2013-11-14 04:42:00,70.6,60.3,30.14,NNE,32,6.7,9.2,70,0.00,CLR,,0.00,WeatherDisplay:10.37,2013-11-14 09:42:00,
2013-11-14 04:47:00,70.5,60.2,30.14,East,97,7.4,10.4,70,0.00,CLR,,0.00,WeatherDisplay:10.37,2013-11-14 09:47:00,
2013-11-14 04:52:00,70.5,60.2,30.14,ENE,64,6.1,11.5,70,0.00,CLR,,0.00,WeatherDisplay:10.37,2013-11-14 09:52:00,
2013-11-14 04:57:00,70.6,60.7,30.14,ENE,62,4.8,9.2,71,0.00,CLR,,0.00,WeatherDisplay:10.37,2013-11-14 09:57:00,
2013-11-14 05:02:00,70.6,60.3,30.14,ESE,106,6.0,10.4,70,0.00,CLR,,0.00,WeatherDisplay:10.37,2013-11-14 10:02:00,
2013-11-14 05:07:00,70.6,59.9,30.14,NE,50,6.0,9.2,69,0.00,CLR,,0.00,WeatherDisplay:10.37,2013-11-14 10:07:00,
2013-11-14 05:12:00,70.6,59.9,30.15,NE,42,7.8,8.1,69,0.00,CLR,,0.00,WeatherDisplay:10.37,2013-11-14 10:12:00,
2013-11-14 05:17:00,70.5,59.4,30.14,NNE,30,8.6,10.4,68,0.00,CLR,,0.00,WeatherDisplay:10.37,2013-11-14 10:17:00,
2013-11-14 05:22:00,70.4,58.9,30.14,ENE,67,4.9,8.1,67,0.00,CLR,,0.00,WeatherDisplay:10.37,2013-11-14 10:22:00,
2013-11-14 05:27:00,70.4,59.3,30.14,NNE,24,6.3,13.8,68,0.00,CLR,,0.00,WeatherDisplay:10.37,2013-11-14 10:27:00,
2013-11-14 05:32:00,70.4,58.9,30.14,North,360,7.3,10.4,67,0.00,CLR,,0.00,WeatherDisplay:10.37,2013-11-14 10:32:00,
2013-11-14 05:38:00,70.3,58.8,30.15,NE,50,4.6,6.9,67,0.00,CLR,,0.00,WeatherDisplay:10.37,2013-11-14 10:38:00,
2013-11-14 05:43:00,70.3,58.8,30.15,NE,36,6.6,11.5,67,0.00,CLR,,0.00,WeatherDisplay:10.37,2013-11-14 10:43:00,
2013-11-14 05:48:00,70.2,58.7,30.15,NE,55,6.8,9.2,67,0.00,CLR,,0.00,WeatherDisplay:10.37,2013-11-14 10:48:00,
2013-11-14 05:53:00,70.3,58.4,30.15,NE,49,5.2,11.5,66,0.00,CLR,,0.00,WeatherDisplay:10.37,2013-11-14 10:53:00,
2013-11-14 05:58:00,70.2,58.3,30.15,NNE,13,7.5,10.4,66,0.00,CLR,,0.00,WeatherDisplay:10.37,2013-11-14 10:58:00,
2013-11-14 06:03:00,70.2,58.7,30.16,NNE,19,4.1,13.8,67,0.00,CLR,,0.00,WeatherDisplay:10.37,2013-11-14 11:03:00,
2013-11-14 06:08:00,70.2,58.3,30.16,NE,39,6.1,10.0,66,0.00,CLR,,0.00,WeatherDisplay:10.37,2013-11-14 11:08:00,
2013-11-14 06:13:00,70.2,58.3,30.16,NE,53,5.1,6.9,66,0.00,CLR,,0.00,WeatherDisplay:10.37,2013-11-14 11:13:00,
2013-11-14 06:18:00,70.1,59.0,30.16,East,81,5.6,7.0,68,0.00,CLR,,0.00,WeatherDisplay:10.37,2013-11-14 11:18:00,
2013-11-14 06:23:00,70.0,58.5,30.16,NNE,17,4.2,11.5,67,0.00,CLR,,0.00,WeatherDisplay:10.37,2013-11-14 11:23:00,
2013-11-14 06:28:00,70.0,58.1,30.16,ENE,74,4.2,8.1,66,0.00,CLR,,0.00,WeatherDisplay:10.37,2013-11-14 11:28:00,
2013-11-14 06:33:00,70.1,58.2,30.17,NNE,26,1.8,10.4,66,0.00,CLR,,0.00,WeatherDisplay:10.37,2013-11-14 11:33:00,
2013-11-14 06:38:00,70.1,57.8,30.17,NE,53,4.7,8.1,65,0.00,CLR,,0.00,WeatherDisplay:10.37,2013-11-14 11:38:00,
2013-11-14 06:43:00,70.1,57.8,30.17,NE,46,3.4,9.2,65,0.00,CLR,,0.00,WeatherDisplay:10.37,2013-11-14 11:43:00,
2013-11-14 06:48:00,69.9,57.6,30.17,NE,50,2.7,4.6,65,0.00,CLR,,0.00,WeatherDisplay:10.37,2013-11-14 11:48:00,
2013-11-14 06:53:00,69.8,57.9,30.17,NE,53,1.1,3.5,66,0.00,CLR,,0.00,WeatherDisplay:10.37,2013-11-14 11:53:00,
2013-11-14 06:58:00,69.7,57.8,30.17,NNE,12,4.4,4.4,66,0.00,CLR,,0.00,WeatherDisplay:10.37,2013-11-14 11:58:00,
2013-11-14 07:03:00,69.7,58.3,30.18,NNE,30,2.5,5.8,67,0.00,CLR,,0.00,WeatherDisplay:10.37,2013-11-14 12:03:00,
2013-11-14 07:08:00,69.7,58.7,30.17,NE,49,3.2,8.1,68,0.00,CLR,,0.00,WeatherDisplay:10.37,2013-11-14 12:08:00,
2013-11-14 07:13:00,69.7,59.1,30.17,NE,42,2.7,4.6,69,0.00,CLR,,0.00,WeatherDisplay:10.37,2013-11-14 12:13:00,
2013-11-14 07:18:00,69.9,59.7,30.18,NE,46,5.2,10.4,70,0.00,CLR,,0.00,WeatherDisplay:10.37,2013-11-14 12:18:00,
2013-11-14 07:23:00,70.1,59.5,30.18,NNE,27,6.8,9.2,69,0.00,CLR,,0.00,WeatherDisplay:10.37,2013-11-14 12:23:00,
2013-11-14 07:28:00,70.1,59.9,30.18,ENE,76,3.3,4.6,70,0.00,CLR,,0.00,WeatherDisplay:10.37,2013-11-14 12:28:00,
2013-11-14 07:33:00,70.3,60.4,30.18,NE,36,5.8,6.9,71,0.00,CLR,,0.00,WeatherDisplay:10.37,2013-11-14 12:33:00,
2013-11-14 07:38:00,70.3,60.4,30.19,ENE,66,4.3,9.2,71,0.00,CLR,,0.00,WeatherDisplay:10.37,2013-11-14 12:38:00,
2013-11-14 07:43:00,70.4,60.9,30.19,ESE,113,4.7,6.9,72,0.00,CLR,,0.00,WeatherDisplay:10.37,2013-11-14 12:43:00,
2013-11-14 07:48:00,70.6,60.7,30.19,NE,36,5.3,6.9,71,0.00,CLR,,0.00,WeatherDisplay:10.37,2013-11-14 12:48:00,
2013-11-14 07:53:00,70.7,60.4,30.19,NE,36,5.0,6.9,70,0.00,CLR,,0.00,WeatherDisplay:10.37,2013-11-14 12:53:00,
2013-11-14 07:58:00,70.7,60.8,30.19,East,85,6.9,11.5,71,0.00,CLR,,0.00,WeatherDisplay:10.37,2013-11-14 12:58:00,
2013-11-14 08:03:00,70.8,60.9,30.20,ENE,71,5.3,6.9,71,0.00,CLR,,0.00,WeatherDisplay:10.37,2013-11-14 13:03:00,
2013-11-14 08:08:00,71.3,61.4,30.20,NNE,33,3.4,4.6,71,0.00,CLR,,0.00,WeatherDisplay:10.37,2013-11-14 13:08:00,
2013-11-14 08:13:00,71.5,60.8,30.20,NW,318,3.7,4.6,69,0.00,CLR,,0.00,WeatherDisplay:10.37,2013-11-14 13:13:00,
2013-11-14 08:18:00,72.0,60.9,30.20,NE,46,6.0,15.0,68,0.00,CLR,,0.00,WeatherDisplay:10.37,2013-11-14 13:18:00,
2013-11-14 08:23:00,72.4,60.8,30.20,ENE,69,3.2,9.2,67,0.00,CLR,,0.00,WeatherDisplay:10.37,2013-11-14 13:23:00,
2013-11-14 08:28:00,72.1,60.5,30.20,East,85,5.3,9.2,67,0.00,CLR,,0.00,WeatherDisplay:10.37,2013-11-14 13:28:00,
2013-11-14 08:33:00,72.1,61.0,30.20,East,84,8.5,11.5,68,0.00,CLR,,0.00,WeatherDisplay:10.37,2013-11-14 13:33:00,
2013-11-14 08:38:00,72.6,61.0,30.20,NE,53,5.9,10.4,67,0.00,CLR,,0.00,WeatherDisplay:10.37,2013-11-14 13:38:00,
2013-11-14 08:43:00,73.1,61.1,30.20,NE,51,3.0,8.1,66,0.00,CLR,,0.00,WeatherDisplay:10.37,2013-11-14 13:43:00,
2013-11-14 08:48:00,73.2,60.7,30.21,ENE,71,8.9,18.4,65,0.00,CLR,,0.00,WeatherDisplay:10.37,2013-11-14 13:48:00,
2013-11-14 08:53:00,72.8,60.3,30.21,NE,35,3.5,6.9,65,0.00,CLR,,0.00,WeatherDisplay:10.37,2013-11-14 13:53:00,
2013-11-14 08:58:00,72.2,60.2,30.21,NE,40,7.3,11.5,66,0.00,CLR,,0.00,WeatherDisplay:10.37,2013-11-14 13:58:00,
2013-11-14 09:03:00,72.5,60.1,30.22,ENE,58,9.4,13.8,65,0.00,CLR,,0.00,WeatherDisplay:10.37,2013-11-14 14:03:00,
2013-11-14 09:08:00,73.1,60.2,30.22,NNE,17,9.9,12.7,64,0.00,CLR,,0.00,WeatherDisplay:10.37,2013-11-14 14:08:00,
2013-11-14 09:13:00,73.3,59.9,30.22,NNE,18,7.7,10.4,63,0.00,CLR,,0.00,WeatherDisplay:10.37,2013-11-14 14:13:00,
2013-11-14 09:18:00,73.2,59.8,30.22,East,93,4.0,9.2,63,0.00,CLR,,0.00,WeatherDisplay:10.37,2013-11-14 14:18:00,
2013-11-14 09:23:00,72.8,59.5,30.23,SE,133,10.8,11.5,63,0.00,CLR,,0.00,WeatherDisplay:10.37,2013-11-14 14:23:00,
2013-11-14 09:28:00,72.8,59.9,30.23,NE,42,5.0,10.4,64,0.00,CLR,,0.00,WeatherDisplay:10.37,2013-11-14 14:28:00,
2013-11-14 09:34:00,73.0,59.7,30.22,NE,35,12.4,12.7,63,0.00,CLR,,0.00,WeatherDisplay:10.37,2013-11-14 14:34:00,
2013-11-14 09:39:00,72.8,60.3,30.22,ENE,75,7.3,11.5,65,0.00,CLR,,0.00,WeatherDisplay:10.37,2013-11-14 14:39:00,
2013-11-14 09:44:00,73.1,59.8,30.23,NE,55,7.6,13.8,63,0.00,CLR,,0.00,WeatherDisplay:10.37,2013-11-14 14:44:00,
2013-11-14 09:47:00,73.2,59.8,30.22,ENE,63,6.3,9.2,63,0.00,CLR,,0.00,WeatherDisplay:10.37,2013-11-14 14:47:00,
2013-11-14 09:52:00,73.3,59.9,30.23,ENE,78,6.2,11.0,63,0.00,CLR,,0.00,WeatherDisplay:10.37,2013-11-14 14:52:00,
2013-11-14 09:57:00,73.5,60.1,30.22,NE,40,5.0,6.9,63,0.00,CLR,,0.00,WeatherDisplay:10.37,2013-11-14 14:57:00,
2013-11-14 10:02:00,74.1,60.7,30.22,ENE,61,4.9,13.8,63,0.00,CLR,,0.00,WeatherDisplay:10.37,2013-11-14 15:02:00,
2013-11-14 10:07:00,74.2,60.8,30.22,ENE,57,9.1,12.7,63,0.00,CLR,,0.00,WeatherDisplay:10.37,2013-11-14 15:07:00,
2013-11-14 10:12:00,74.2,60.8,30.22,ENE,63,9.7,12.7,63,0.00,CLR,,0.00,WeatherDisplay:10.37,2013-11-14 15:12:00,
2013-11-14 10:17:00,74.3,60.9,30.22,NE,39,6.6,11.5,63,0.00,CLR,,0.00,WeatherDisplay:10.37,2013-11-14 15:17:00,
2013-11-14 10:22:00,74.3,61.3,30.21,NNE,19,8.9,11.5,64,0.00,CLR,,0.00,WeatherDisplay:10.37,2013-11-14 15:22:00,
2013-11-14 10:27:00,73.8,61.7,30.22,NE,35,5.0,12.7,66,0.00,CLR,,0.00,WeatherDisplay:10.37,2013-11-14 15:27:00,
2013-11-14 10:32:00,74.2,62.5,30.22,East,90,5.5,12.7,67,0.00,CLR,,0.00,WeatherDisplay:10.37,2013-11-14 15:32:00,
2013-11-14 10:37:00,74.2,61.7,30.22,ESE,105,8.7,11.5,65,0.00,CLR,,0.00,WeatherDisplay:10.37,2013-11-14 15:37:00,
2013-11-14 10:42:00,74.2,62.5,30.21,NE,35,8.4,15.0,67,0.00,CLR,,0.00,WeatherDisplay:10.37,2013-11-14 15:42:00,
2013-11-14 10:47:00,74.3,63.1,30.22,ENE,67,6.1,12.7,68,0.00,CLR,,0.00,WeatherDisplay:10.37,2013-11-14 15:47:00,
2013-11-14 10:52:00,74.4,63.6,30.22,NE,55,5.9,10.4,69,0.00,CLR,,0.00,WeatherDisplay:10.37,2013-11-14 15:52:00,
2013-11-14 10:57:00,74.2,63.4,30.22,ENE,62,9.5,12.7,69,0.00,CLR,,0.00,WeatherDisplay:10.37,2013-11-14 15:57:00,
2013-11-14 11:02:00,73.9,63.1,30.21,ENE,57,7.1,12.7,69,0.00,CLR,,0.00,WeatherDisplay:10.37,2013-11-14 16:02:00,
2013-11-14 11:07:00,74.0,63.2,30.21,ENE,69,9.8,13.8,69,0.00,CLR,,0.00,WeatherDisplay:10.37,2013-11-14 16:07:00,
2013-11-14 11:12:00,74.7,63.4,30.20,SE,125,6.3,11.5,68,0.00,CLR,,0.00,WeatherDisplay:10.37,2013-11-14 16:12:00,
2013-11-14 11:17:00,74.4,62.7,30.20,NE,46,10.7,12.7,67,0.00,CLR,,0.00,WeatherDisplay:10.37,2013-11-14 16:17:00,
2013-11-14 11:22:00,74.2,62.5,30.20,NE,49,9.6,13.8,67,0.00,CLR,,0.00,WeatherDisplay:10.37,2013-11-14 16:22:00,
2013-11-14 11:27:00,74.5,62.4,30.20,ENE,65,9.3,13.8,66,0.00,CLR,,0.00,WeatherDisplay:10.37,2013-11-14 16:27:00,
2013-11-14 11:32:00,74.8,62.2,30.19,North,360,7.2,12.7,65,0.00,CLR,,0.00,WeatherDisplay:10.37,2013-11-14 16:32:00,
2013-11-14 11:37:00,74.8,62.2,30.19,NE,50,8.5,12.7,65,0.00,CLR,,0.00,WeatherDisplay:10.37,2013-11-14 16:37:00,
2013-11-14 11:42:00,75.1,62.1,30.19,NE,44,10.4,17.3,64,0.00,CLR,,0.00,WeatherDisplay:10.37,2013-11-14 16:42:00,
2013-11-14 11:48:00,75.0,62.4,30.19,NE,49,9.1,14.0,65,0.00,CLR,,0.00,WeatherDisplay:10.37,2013-11-14 16:48:00,
2013-11-14 11:53:00,75.1,62.1,30.18,NNE,22,9.5,12.7,64,0.00,CLR,,0.00,WeatherDisplay:10.37,2013-11-14 16:53:00,
2013-11-14 11:58:00,75.2,62.2,30.18,ENE,75,5.6,11.5,64,0.00,CLR,,0.00,WeatherDisplay:10.37,2013-11-14 16:58:00,
2013-11-14 12:03:00,75.2,62.6,30.18,East,82,7.5,9.2,65,0.00,CLR,,0.00,WeatherDisplay:10.37,2013-11-14 17:03:00,
2013-11-14 12:08:00,75.0,62.0,30.18,ESE,102,8.6,15.0,64,0.00,CLR,,0.00,WeatherDisplay:10.37,2013-11-14 17:08:00,
2013-11-14 12:13:00,75.2,62.6,30.18,ENE,57,9.1,10.4,65,0.00,CLR,,0.00,WeatherDisplay:10.37,2013-11-14 17:13:00,
2013-11-14 12:18:00,75.3,61.8,30.18,NNE,25,8.7,10.4,63,0.00,CLR,,0.00,WeatherDisplay:10.37,2013-11-14 17:18:00,
2013-11-14 12:23:00,75.1,62.1,30.18,NNE,24,5.4,6.9,64,0.00,CLR,,0.00,WeatherDisplay:10.37,2013-11-14 17:23:00,
2013-11-14 12:28:00,75.4,61.9,30.17,ENE,64,5.7,12.7,63,0.00,CLR,,0.00,WeatherDisplay:10.37,2013-11-14 17:28:00,
2013-11-14 12:33:00,75.9,63.3,30.17,ENE,65,3.8,19.6,65,0.00,CLR,,0.00,WeatherDisplay:10.37,2013-11-14 17:33:00,
2013-11-14 12:38:00,76.0,62.9,30.17,ENE,59,11.3,15.0,64,0.00,CLR,,0.00,WeatherDisplay:10.37,2013-11-14 17:38:00,
2013-11-14 12:43:00,75.4,62.4,30.16,ENE,74,7.6,11.5,64,0.00,CLR,,0.00,WeatherDisplay:10.37,2013-11-14 17:43:00,
2013-11-14 12:48:00,75.1,62.5,30.16,NNE,32,5.3,11.5,65,0.00,CLR,,0.00,WeatherDisplay:10.37,2013-11-14 17:48:00,
2013-11-14 12:53:00,75.2,63.5,30.16,ENE,60,10.1,13.8,67,0.00,CLR,,0.00,WeatherDisplay:10.37,2013-11-14 17:53:00,
2013-11-14 12:58:00,75.1,62.5,30.16,NNE,24,6.5,15.0,65,0.00,CLR,,0.00,WeatherDisplay:10.37,2013-11-14 17:58:00,
2013-11-14 13:03:00,75.1,62.1,30.15,East,83,9.7,11.5,64,0.00,CLR,,0.00,WeatherDisplay:10.37,2013-11-14 18:03:00,
2013-11-14 13:08:00,75.5,62.5,30.15,NE,40,5.9,11.5,64,0.00,CLR,,0.00,WeatherDisplay:10.37,2013-11-14 18:08:00,
2013-11-14 13:13:00,75.5,62.0,30.15,East,86,9.8,12.7,63,0.00,CLR,,0.00,WeatherDisplay:10.37,2013-11-14 18:13:00,
2013-11-14 13:18:00,75.5,62.5,30.15,East,85,10.9,13.8,64,0.00,CLR,,0.00,WeatherDisplay:10.37,2013-11-14 18:18:00,
2013-11-14 13:23:00,75.8,62.3,30.14,ENE,70,11.3,17.3,63,0.00,CLR,,0.00,WeatherDisplay:10.37,2013-11-14 18:23:00,
2013-11-14 13:28:00,75.8,62.3,30.14,ENE,71,8.8,18.4,63,0.00,CLR,,0.00,WeatherDisplay:10.37,2013-11-14 18:28:00,
2013-11-14 13:33:00,75.7,62.2,30.14,NNE,12,5.1,9.2,63,0.00,CLR,,0.00,WeatherDisplay:10.37,2013-11-14 18:33:00,
2013-11-14 13:38:00,75.8,62.3,30.14,East,80,8.8,16.1,63,0.00,CLR,,0.00,WeatherDisplay:10.37,2013-11-14 18:38:00,
2013-11-14 13:43:00,75.5,62.0,30.14,NE,38,8.3,11.5,63,0.00,CLR,,0.00,WeatherDisplay:10.37,2013-11-14 18:43:00,
2013-11-14 13:48:00,75.1,63.4,30.14,NE,49,4.4,9.2,67,0.00,CLR,,0.00,WeatherDisplay:10.37,2013-11-14 18:48:00,
2013-11-14 13:53:00,74.9,62.3,30.15,NE,48,4.7,10.4,65,0.00,CLR,,0.00,WeatherDisplay:10.37,2013-11-14 18:53:00,
2013-11-14 13:58:00,74.8,61.8,30.14,ENE,71,11.3,16.1,64,0.00,CLR,,0.00,WeatherDisplay:10.37,2013-11-14 18:58:00,
2013-11-14 14:03:00,74.6,62.1,30.14,NE,52,5.7,11.5,65,0.00,CLR,,0.00,WeatherDisplay:10.37,2013-11-14 19:03:00,
2013-11-14 14:08:00,74.7,62.1,30.14,NE,47,9.2,11.5,65,0.00,CLR,,0.00,WeatherDisplay:10.37,2013-11-14 19:08:00,
2013-11-14 14:13:00,74.9,62.3,30.14,East,83,6.9,10.4,65,0.00,CLR,,0.00,WeatherDisplay:10.37,2013-11-14 19:13:00,
2013-11-14 14:18:00,75.0,62.4,30.14,ENE,77,5.1,6.9,65,0.00,CLR,,0.00,WeatherDisplay:10.37,2013-11-14 19:18:00,
2013-11-14 14:23:00,75.3,62.7,30.14,NNE,13,8.2,11.5,65,0.00,CLR,,0.00,WeatherDisplay:10.37,2013-11-14 19:23:00,
2013-11-14 14:28:00,75.1,62.5,30.14,ENE,61,5.2,6.9,65,0.00,CLR,,0.00,WeatherDisplay:10.37,2013-11-14 19:28:00,
2013-11-14 14:33:00,74.7,61.3,30.14,NNE,19,6.9,12.7,63,0.00,CLR,,0.00,WeatherDisplay:10.37,2013-11-14 19:33:00,
2013-11-14 14:38:00,74.6,61.6,30.14,North,5,7.9,11.5,64,0.00,CLR,,0.00,WeatherDisplay:10.37,2013-11-14 19:38:00,
2013-11-14 14:43:00,74.5,61.5,30.14,NE,42,6.5,10.4,64,0.00,CLR,,0.00,WeatherDisplay:10.37,2013-11-14 19:43:00,
2013-11-14 14:48:00,74.5,61.5,30.14,NE,37,6.4,11.5,64,0.00,CLR,,0.00,WeatherDisplay:10.37,2013-11-14 19:48:00,
2013-11-14 14:53:00,74.4,61.0,30.14,NE,42,3.7,10.4,63,0.00,CLR,,0.00,WeatherDisplay:10.37,2013-11-14 19:53:00,
2013-11-14 14:58:00,74.3,60.9,30.14,ENE,72,7.9,11.5,63,0.00,CLR,,0.00,WeatherDisplay:10.37,2013-11-14 19:58:00,
2013-11-14 15:03:00,74.4,61.4,30.14,ENE,77,7.1,10.4,64,0.00,CLR,,0.00,WeatherDisplay:10.37,2013-11-14 20:03:00,
2013-11-14 15:08:00,74.4,61.0,30.14,NNE,20,8.3,11.5,63,0.00,CLR,,0.00,WeatherDisplay:10.37,2013-11-14 20:08:00,
2013-11-14 15:13:00,74.3,60.9,30.14,East,86,6.0,9.2,63,0.00,CLR,,0.00,WeatherDisplay:10.37,2013-11-14 20:13:00,
2013-11-14 15:18:00,74.3,61.3,30.13,NE,41,7.5,11.5,64,0.00,CLR,,0.00,WeatherDisplay:10.37,2013-11-14 20:18:00,
2013-11-14 15:23:00,74.3,61.3,30.13,NNE,28,8.8,15.0,64,0.00,CLR,,0.00,WeatherDisplay:10.37,2013-11-14 20:23:00,
2013-11-14 15:28:00,74.2,61.2,30.13,ENE,67,6.6,12.7,64,0.00,CLR,,0.00,WeatherDisplay:10.37,2013-11-14 20:28:00,
2013-11-14 15:33:00,74.2,61.7,30.13,NNE,27,7.4,9.2,65,0.00,CLR,,0.00,WeatherDisplay:10.37,2013-11-14 20:33:00,
2013-11-14 15:38:00,74.2,61.2,30.13,NNE,24,4.5,9.2,64,0.00,CLR,,0.00,WeatherDisplay:10.37,2013-11-14 20:38:00,
2013-11-14 15:43:00,74.3,61.8,30.14,NNE,32,7.0,11.5,65,0.00,CLR,,0.00,WeatherDisplay:10.37,2013-11-14 20:43:00,
2013-11-14 15:48:00,74.2,61.2,30.13,ENE,71,10.7,13.8,64,0.00,CLR,,0.00,WeatherDisplay:10.37,2013-11-14 20:48:00,
2013-11-14 15:53:00,74.1,61.6,30.14,NE,51,7.0,12.7,65,0.00,CLR,,0.00,WeatherDisplay:10.37,2013-11-14 20:53:00,
2013-11-14 15:58:00,74.0,61.5,30.14,NNE,27,9.0,11.5,65,0.00,CLR,,0.00,WeatherDisplay:10.37,2013-11-14 20:58:00,
2013-11-14 16:03:00,73.9,61.4,30.14,NE,50,7.4,11.5,65,0.00,CLR,,0.00,WeatherDisplay:10.37,2013-11-14 21:03:00,
2013-11-14 16:08:00,73.9,61.8,30.14,East,84,6.7,10.4,66,0.00,CLR,,0.00,WeatherDisplay:10.37,2013-11-14 21:08:00,
2013-11-14 16:13:00,73.9,61.8,30.14,NNE,26,4.8,9.2,66,0.00,CLR,,0.00,WeatherDisplay:10.37,2013-11-14 21:13:00,
2013-11-14 16:18:00,73.9,61.8,30.15,ENE,57,7.2,12.7,66,0.00,CLR,,0.00,WeatherDisplay:10.37,2013-11-14 21:18:00,
2013-11-14 16:23:00,73.9,61.4,30.14,NW,325,5.4,5.4,65,0.00,CLR,,0.00,WeatherDisplay:10.37,2013-11-14 21:23:00,
2013-11-14 16:28:00,73.9,61.4,30.14,ENE,61,7.4,11.0,65,0.00,CLR,,0.00,WeatherDisplay:10.37,2013-11-14 21:28:00,
2013-11-14 16:33:00,73.8,61.3,30.14,NNE,28,6.0,10.4,65,0.00,CLR,,0.00,WeatherDisplay:10.37,2013-11-14 21:33:00,
2013-11-14 16:39:00,73.6,61.1,30.14,NE,43,6.5,11.5,65,0.00,CLR,,0.00,WeatherDisplay:10.37,2013-11-14 21:39:00,
2013-11-14 16:44:00,73.5,61.0,30.14,NNE,28,4.9,8.1,65,0.00,CLR,,0.00,WeatherDisplay:10.37,2013-11-14 21:44:00,
2013-11-14 16:49:00,73.4,61.3,30.14,NNE,16,6.8,13.8,66,0.00,CLR,,0.00,WeatherDisplay:10.37,2013-11-14 21:49:00,
2013-11-14 16:54:00,73.5,61.9,30.14,NNE,28,4.3,10.4,67,0.00,CLR,,0.00,WeatherDisplay:10.37,2013-11-14 21:54:00,
2013-11-14 16:59:00,73.4,61.3,30.14,NE,43,6.9,9.2,66,0.00,CLR,,0.00,WeatherDisplay:10.37,2013-11-14 21:59:00,
2013-11-14 17:04:00,73.5,61.9,30.14,NE,56,6.4,12.7,67,0.00,CLR,,0.00,WeatherDisplay:10.37,2013-11-14 22:04:00,
2013-11-14 17:09:00,73.5,61.4,30.14,NNE,21,6.4,13.8,66,0.00,CLR,,0.00,WeatherDisplay:10.37,2013-11-14 22:09:00,
2013-11-14 17:14:00,73.4,61.8,30.14,NE,44,8.2,11.5,67,0.00,CLR,,0.00,WeatherDisplay:10.37,2013-11-14 22:14:00,
2013-11-14 17:19:00,73.3,61.7,30.14,NNE,32,3.5,9.2,67,0.00,CLR,,0.00,WeatherDisplay:10.37,2013-11-14 22:19:00,
2013-11-14 17:24:00,73.3,61.3,30.14,NNE,30,7.7,9.2,66,0.00,CLR,,0.00,WeatherDisplay:10.37,2013-11-14 22:24:00,
2013-11-14 17:29:00,73.3,61.3,30.14,ENE,66,5.6,11.5,66,0.00,CLR,,0.00,WeatherDisplay:10.37,2013-11-14 22:29:00,
2013-11-14 17:34:00,73.2,61.2,30.14,NNE,29,5.1,11.5,66,0.00,CLR,,0.00,WeatherDisplay:10.37,2013-11-14 22:34:00,
2013-11-14 17:39:00,73.2,61.2,30.14,East,80,2.9,8.1,66,0.00,CLR,,0.00,WeatherDisplay:10.37,2013-11-14 22:39:00,
2013-11-14 17:44:00,73.2,61.2,30.14,NE,49,3.8,10.4,66,0.00,CLR,,0.00,WeatherDisplay:10.37,2013-11-14 22:44:00,
2013-11-14 17:49:00,73.1,61.5,30.15,NNE,22,6.6,8.1,67,0.00,CLR,,0.00,WeatherDisplay:10.37,2013-11-14 22:49:00,
2013-11-14 17:54:00,73.1,61.1,30.15,ENE,65,5.9,10.4,66,0.00,CLR,,0.00,WeatherDisplay:10.37,2013-11-14 22:54:00,
2013-11-14 17:59:00,73.0,61.0,30.15,NNE,26,6.6,11.5,66,0.00,CLR,,0.00,WeatherDisplay:10.37,2013-11-14 22:59:00,
2013-11-14 18:04:00,73.1,61.1,30.15,NE,51,4.2,10.4,66,0.00,CLR,,0.00,WeatherDisplay:10.37,2013-11-14 23:04:00,
2013-11-14 18:09:00,73.1,61.1,30.15,NE,46,4.9,10.4,66,0.00,CLR,,0.00,WeatherDisplay:10.37,2013-11-14 23:09:00,
2013-11-14 18:14:00,73.0,61.4,30.15,ENE,71,4.6,11.5,67,0.00,CLR,,0.00,WeatherDisplay:10.37,2013-11-14 23:14:00,
2013-11-14 18:19:00,72.9,60.4,30.16,East,82,4.2,10.4,65,0.00,CLR,,0.00,WeatherDisplay:10.37,2013-11-14 23:19:00,
2013-11-14 18:24:00,73.0,60.5,30.15,NE,39,5.6,5.8,65,0.00,CLR,,0.00,WeatherDisplay:10.37,2013-11-14 23:24:00,
2013-11-14 18:29:00,73.0,61.4,30.15,NE,48,3.0,5.8,67,0.00,CLR,,0.00,WeatherDisplay:10.37,2013-11-14 23:29:00,
2013-11-14 18:34:00,72.9,60.9,30.15,NNE,33,3.5,6.9,66,0.00,CLR,,0.00,WeatherDisplay:10.37,2013-11-14 23:34:00,
2013-11-14 18:39:00,72.9,60.4,30.15,NE,36,4.4,6.9,65,0.00,CLR,,0.00,WeatherDisplay:10.37,2013-11-14 23:39:00,
2013-11-14 18:44:00,72.9,60.9,30.15,NNE,24,5.4,11.5,66,0.00,CLR,,0.00,WeatherDisplay:10.37,2013-11-14 23:44:00,
2013-11-14 18:49:00,72.9,60.9,30.15,ENE,71,2.9,6.9,66,0.00,CLR,,0.00,WeatherDisplay:10.37,2013-11-14 23:49:00,
2013-11-14 18:54:00,73.0,61.0,30.15,NE,51,4.8,5.8,66,0.00,CLR,,0.00,WeatherDisplay:10.37,2013-11-14 23:54:00,
2013-11-14 18:59:00,73.0,61.0,30.15,NE,41,2.7,3.5,66,0.00,CLR,,0.00,WeatherDisplay:10.37,2013-11-14 23:59:00,
2013-11-14 19:04:00,73.0,61.0,30.15,NE,42,5.7,8.1,66,0.00,CLR,,0.00,WeatherDisplay:10.37,2013-11-15 00:04:00,
2013-11-14 19:09:00,73.0,61.0,30.15,NE,56,3.5,4.6,66,0.00,CLR,,0.00,WeatherDisplay:10.37,2013-11-15 00:09:00,
2013-11-14 19:14:00,72.9,60.9,30.15,NE,44,4.1,8.1,66,0.00,CLR,,0.00,WeatherDisplay:10.37,2013-11-15 00:14:00,
2013-11-14 19:19:00,72.8,60.8,30.15,NE,48,4.5,10.4,66,0.00,CLR,,0.00,WeatherDisplay:10.37,2013-11-15 00:19:00,
2013-11-14 19:24:00,72.8,60.8,30.15,NE,49,3.7,4.6,66,0.00,CLR,,0.00,WeatherDisplay:10.37,2013-11-15 00:24:00,
2013-11-14 19:29:00,72.7,61.1,30.15,North,349,3.4,5.8,67,0.00,CLR,,0.00,WeatherDisplay:10.37,2013-11-15 00:29:00,
2013-11-14 19:34:00,72.8,60.8,30.15,NE,51,5.8,9.2,66,0.00,CLR,,0.00,WeatherDisplay:10.37,2013-11-15 00:34:00,
2013-11-14 19:39:00,72.7,60.7,30.15,NE,40,5.9,6.9,66,0.00,CLR,,0.00,WeatherDisplay:10.37,2013-11-15 00:39:00,
2013-11-14 19:44:00,72.8,61.2,30.16,NNE,22,4.1,7.0,67,0.00,CLR,,0.00,WeatherDisplay:10.37,2013-11-15 00:44:00,
2013-11-14 19:49:00,72.8,60.8,30.15,NNE,28,3.5,8.0,66,0.00,CLR,,0.00,WeatherDisplay:10.37,2013-11-15 00:49:00,
2013-11-14 19:54:00,72.8,60.8,30.15,East,95,3.7,5.8,66,0.00,CLR,,0.00,WeatherDisplay:10.37,2013-11-15 00:54:00,
2013-11-14 19:59:00,72.7,60.3,30.16,East,79,6.3,9.2,65,0.00,CLR,,0.00,WeatherDisplay:10.37,2013-11-15 00:59:00,
2013-11-14 20:05:00,72.7,60.7,30.16,ENE,59,1.7,6.9,66,0.00,CLR,,0.00,WeatherDisplay:10.37,2013-11-15 01:05:00,
2013-11-14 20:10:00,72.7,60.7,30.16,East,80,6.4,9.2,66,0.00,CLR,,0.00,WeatherDisplay:10.37,2013-11-15 01:10:00,
2013-11-14 20:15:00,72.8,61.2,30.16,NNE,30,2.7,8.1,67,0.00,CLR,,0.00,WeatherDisplay:10.37,2013-11-15 01:15:00,
2013-11-14 20:20:00,72.8,60.8,30.16,ENE,70,4.0,4.6,66,0.00,CLR,,0.00,WeatherDisplay:10.37,2013-11-15 01:20:00,
2013-11-14 20:25:00,72.9,60.9,30.15,ENE,68,7.1,10.4,66,0.00,CLR,,0.00,WeatherDisplay:10.37,2013-11-15 01:25:00,
2013-11-14 20:30:00,72.9,60.9,30.16,NE,40,2.0,3.5,66,0.00,CLR,,0.00,WeatherDisplay:10.37,2013-11-15 01:30:00,
2013-11-14 20:35:00,72.8,60.8,30.16,NNE,24,3.8,10.4,66,0.00,CLR,,0.00,WeatherDisplay:10.37,2013-11-15 01:35:00,
2013-11-14 20:40:00,72.7,60.7,30.16,ENE,61,4.6,9.2,66,0.00,CLR,,0.00,WeatherDisplay:10.37,2013-11-15 01:40:00,
2013-11-14 20:45:00,72.7,60.7,30.16,NE,49,3.3,4.6,66,0.00,CLR,,0.00,WeatherDisplay:10.37,2013-11-15 01:45:00,
2013-11-14 20:50:00,72.6,61.0,30.16,NE,46,3.3,4.6,67,0.00,CLR,,0.00,WeatherDisplay:10.37,2013-11-15 01:50:00,
2013-11-14 20:55:00,72.6,60.6,30.16,NE,49,0.8,5.8,66,0.00,CLR,,0.00,WeatherDisplay:10.37,2013-11-15 01:55:00,
2013-11-14 21:00:00,72.5,60.9,30.16,ENE,65,3.4,8.1,67,0.00,CLR,,0.00,WeatherDisplay:10.37,2013-11-15 02:00:00,
2013-11-14 21:05:00,72.6,60.6,30.16,NE,38,2.7,3.5,66,0.00,CLR,,0.00,WeatherDisplay:10.37,2013-11-15 02:05:00,
2013-11-14 21:10:00,72.6,60.6,30.16,ENE,69,3.2,7.0,66,0.00,CLR,,0.00,WeatherDisplay:10.37,2013-11-15 02:10:00,
2013-11-14 21:15:00,72.6,60.6,30.16,ENE,69,3.4,5.8,66,0.00,CLR,,0.00,WeatherDisplay:10.37,2013-11-15 02:15:00,
2013-11-14 21:20:00,72.6,61.0,30.16,ENE,74,5.0,5.0,67,0.00,CLR,,0.00,WeatherDisplay:10.37,2013-11-15 02:20:00,
2013-11-14 21:25:00,72.6,61.0,30.16,NE,44,3.6,4.6,67,0.00,CLR,,0.00,WeatherDisplay:10.37,2013-11-15 02:25:00,
2013-11-14 21:30:00,72.5,61.3,30.16,ENE,58,3.2,4.6,68,0.00,CLR,,0.00,WeatherDisplay:10.37,2013-11-15 02:30:00,
2013-11-14 21:35:00,72.4,61.7,30.16,ENE,59,1.2,3.5,69,0.00,CLR,,0.00,WeatherDisplay:10.37,2013-11-15 02:35:00,
2013-11-14 21:40:00,72.3,61.6,30.15,ENE,66,4.2,8.1,69,0.00,CLR,,0.00,WeatherDisplay:10.37,2013-11-15 02:40:00,
2013-11-14 21:45:00,72.3,62.0,30.15,ENE,68,3.1,5.8,70,0.00,CLR,,0.00,WeatherDisplay:10.37,2013-11-15 02:45:00,
2013-11-14 21:50:00,72.3,62.0,30.15,East,84,4.5,8.1,70,0.00,CLR,,0.00,WeatherDisplay:10.37,2013-11-15 02:50:00,
2013-11-14 21:55:00,72.4,62.5,30.15,ENE,57,3.0,6.9,71,0.00,CLR,,0.00,WeatherDisplay:10.37,2013-11-15 02:55:00,
2013-11-14 22:00:00,72.4,62.5,30.15,ENE,71,4.5,10.4,71,0.00,CLR,,0.00,WeatherDisplay:10.37,2013-11-15 03:00:00,
2013-11-14 22:05:00,72.5,62.2,30.15,ENE,57,2.7,5.8,70,0.00,CLR,,0.00,WeatherDisplay:10.37,2013-11-15 03:05:00,
2013-11-14 22:10:00,72.5,62.2,30.15,ESE,110,3.3,6.9,70,0.00,CLR,,0.00,WeatherDisplay:10.37,2013-11-15 03:10:00,
2013-11-14 22:15:00,72.5,62.6,30.14,NE,53,4.8,8.1,71,0.00,CLR,,0.00,WeatherDisplay:10.37,2013-11-15 03:15:00,
2013-11-14 22:20:00,72.5,63.0,30.14,NE,55,6.2,10.4,72,0.00,CLR,,0.00,WeatherDisplay:10.37,2013-11-15 03:20:00,
2013-11-14 22:25:00,72.6,62.7,30.14,NNE,22,7.2,12.7,71,0.00,CLR,,0.00,WeatherDisplay:10.37,2013-11-15 03:25:00,
2013-11-14 22:30:00,72.7,62.8,30.14,ENE,67,8.8,13.8,71,0.00,CLR,,0.00,WeatherDisplay:10.37,2013-11-15 03:30:00,
2013-11-14 22:35:00,72.8,62.8,30.14,ENE,70,5.2,10.4,71,0.00,CLR,,0.00,WeatherDisplay:10.37,2013-11-15 03:35:00,
2013-11-14 22:40:00,72.8,63.2,30.14,NE,53,7.1,10.4,72,0.00,CLR,,0.00,WeatherDisplay:10.37,2013-11-15 03:40:00,
2013-11-14 22:45:00,72.8,63.2,30.14,North,355,5.5,10.4,72,0.00,CLR,,0.00,WeatherDisplay:10.37,2013-11-15 03:45:00,
2013-11-14 22:50:00,72.9,63.3,30.14,ENE,74,4.2,8.1,72,0.00,CLR,,0.00,WeatherDisplay:10.37,2013-11-15 03:50:00,
2013-11-14 22:55:00,73.0,63.4,30.14,ENE,69,4.2,8.1,72,0.00,CLR,,0.00,WeatherDisplay:10.37,2013-11-15 03:55:00,
2013-11-14 23:00:00,73.1,63.5,30.14,ENE,76,4.2,8.0,72,0.00,CLR,,0.00,WeatherDisplay:10.37,2013-11-15 04:00:00,
2013-11-14 23:05:00,73.2,64.0,30.14,ENE,57,4.6,8.1,73,0.00,CLR,,0.00,WeatherDisplay:10.37,2013-11-15 04:05:00,
2013-11-14 23:10:00,73.3,64.1,30.14,ENE,67,4.4,10.4,73,0.00,CLR,,0.00,WeatherDisplay:10.37,2013-11-15 04:10:00,
2013-11-14 23:15:00,73.3,64.1,30.14,NE,48,10.0,10.4,73,0.00,CLR,,0.00,WeatherDisplay:10.37,2013-11-15 04:15:00,
2013-11-14 23:20:00,73.4,64.6,30.14,ENE,74,3.3,9.2,74,0.00,CLR,,0.00,WeatherDisplay:10.37,2013-11-15 04:20:00,
2013-11-14 23:25:00,73.3,64.5,30.13,NE,49,4.7,8.1,74,0.00,CLR,,0.00,WeatherDisplay:10.37,2013-11-15 04:25:00,
2013-11-14 23:30:00,73.3,64.5,30.13,ENE,64,5.6,11.5,74,0.00,CLR,,0.00,WeatherDisplay:10.37,2013-11-15 04:30:00,
2013-11-14 23:35:00,73.3,64.5,30.12,ENE,73,5.2,11.5,74,0.00,CLR,,0.00,WeatherDisplay:10.37,2013-11-15 04:35:00,
2013-11-14 23:40:00,73.3,64.9,30.12,ENE,63,2.7,4.6,75,0.00,CLR,,0.00,WeatherDisplay:10.37,2013-11-15 04:40:00,
2013-11-14 23:45:00,73.3,64.9,30.12,NE,42,6.4,8.1,75,0.00,CLR,,0.00,WeatherDisplay:10.37,2013-11-15 04:45:00,
2013-11-14 23:50:00,73.3,64.9,30.12,East,82,3.9,5.0,75,0.00,CLR,,0.00,WeatherDisplay:10.37,2013-11-15 04:50:00,
2013-11-14 23:55:00,73.3,64.9,30.12,NE,36,5.7,11.5,75,0.00,CLR,,0.00,WeatherDisplay:10.37,2013-11-15 04:55:00,